Time;durP1;ratioP1;P1;durP2;ratioP2;P2;SDS_P1;SDS_P2;PMS_P1;PMS_P2;Temp;Humidity;BMP_temperature;BMP_pressure;BME280_temperature;BME280_humidity;BME280_pressure;Samples;Min_cycle;Max_cycle;Signal;HPM_P1;HPM_P2
2021/05/03 00:01:01;;;;;;;0.65;0.50;;;;;;;13.61;58.59;93129.84;5089467;28;20118;-45
2021/05/03 00:03:27;;;;;;;1.42;0.70;;;;;;;13.84;58.22;93157.97;5088738;28;20103;-45
2021/05/03 00:05:56;;;;;;;0.60;0.20;;;;;;;13.61;58.20;93163.88;5089554;28;20016;-45
2021/05/03 00:08:23;;;;;;;0.50;0.40;;;;;;;13.50;57.03;93164.38;5089678;28;20019;-46
2021/05/03 00:10:48;;;;;;;8.82;0.82;;;;;;;13.25;56.42;93166.56;5089839;28;20030;-45
2021/05/03 00:13:14;;;;;;;1.00;0.52;;;;;;;13.48;57.20;93172.53;5089647;28;20015;-46
2021/05/03 00:15:39;;;;;;;0.95;0.50;;;;;;;13.29;57.15;93166.88;5089809;28;20085;-46
2021/05/03 00:18:05;;;;;;;3.95;1.40;;;;;;;13.42;54.43;93166.53;5089648;28;20504;-48
2021/05/03 00:20:30;;;;;;;14.45;1.02;;;;;;;13.34;56.65;93171.41;5089114;28;20027;-46
2021/05/03 00:22:56;;;;;;;7.30;0.82;;;;;;;13.13;56.19;93168.34;5106477;28;20165;-48
2021/05/03 00:25:21;;;;;;;0.25;0.25;;;;;;;13.15;57.81;93176.81;5109701;28;20019;-46
2021/05/03 00:27:47;;;;;;;1.90;0.70;;;;;;;13.20;57.55;93189.72;5109424;28;20039;-46
2021/05/03 00:30:13;;;;;;;6.07;0.68;;;;;;;13.10;57.12;93179.84;5109979;28;20030;-45
2021/05/03 00:32:38;;;;;;;0.30;0.30;;;;;;;12.87;56.71;93168.97;5102616;28;20023;-45
2021/05/03 00:35:04;;;;;;;1.50;0.80;;;;;;;12.68;55.41;93166.03;5089296;28;20116;-46
2021/05/03 00:37:30;;;;;;;0.63;0.35;;;;;;;12.70;55.57;93164.19;5090384;28;20016;-47
2021/05/03 00:39:55;;;;;;;0.38;0.38;;;;;;;12.61;56.72;93150.22;5089440;28;20035;-45
2021/05/03 00:42:21;;;;;;;2.08;1.02;;;;;;;12.31;53.67;93118.03;5089463;28;20056;-47
2021/05/03 00:44:46;;;;;;;0.95;0.95;;;;;;;12.69;53.96;93137.78;5089136;28;20028;-47
2021/05/03 00:47:12;;;;;;;2.10;0.40;;;;;;;12.81;54.03;93138.03;5089084;28;20031;-47
2021/05/03 00:49:38;;;;;;;0.43;0.30;;;;;;;12.89;54.20;93146.97;5089272;28;20074;-48
2021/05/03 00:52:04;;;;;;;5.22;0.52;;;;;;;12.73;57.04;93154.00;5089107;28;20055;-50
2021/05/03 00:54:29;;;;;;;3.58;0.70;;;;;;;12.34;58.20;93152.16;5094391;28;20110;-45
2021/05/03 00:56:55;;;;;;;1.75;0.75;;;;;;;12.18;57.53;93160.59;5109785;28;20088;-49
2021/05/03 00:59:20;;;;;;;1.80;0.47;;;;;;;11.87;58.78;93172.44;5109808;28;20683;-46
2021/05/03 01:01:45;;;;;;;0.45;0.40;;;;;;;11.75;56.68;93166.63;5108348;28;20031;-45
2021/05/03 01:04:11;;;;;;;0.77;0.73;;;;;;;11.91;56.35;93173.53;5109754;28;20034;-48
2021/05/03 01:06:36;;;;;;;1.75;1.65;;;;;;;11.95;58.61;93181.44;5109759;28;20020;-48
2021/05/03 01:09:02;;;;;;;0.25;0.20;;;;;;;11.88;58.35;93180.19;5109746;28;20035;-44
2021/05/03 01:11:27;;;;;;;0.38;0.38;;;;;;;11.44;57.90;93192.97;5109415;28;20020;-50
2021/05/03 01:13:53;;;;;;;0.45;0.45;;;;;;;11.21;58.90;93197.88;5098809;28;20023;-45
2021/05/03 01:16:19;;;;;;;1.70;0.68;;;;;;;11.22;56.14;93188.25;5089255;28;20023;-47
2021/05/03 01:18:44;;;;;;;0.40;0.40;;;;;;;11.53;56.31;93191.63;5089226;28;20073;-47
2021/05/03 01:21:09;;;;;;;1.13;0.75;;;;;;;11.39;57.19;93191.88;5091549;28;20032;-46
2021/05/03 01:23:35;;;;;;;0.90;0.40;;;;;;;11.09;57.83;93182.97;5109383;28;20454;-46
2021/05/03 01:26:01;;;;;;;0.73;0.73;;;;;;;11.11;57.97;93185.94;5089709;28;20749;-47
2021/05/03 01:28:27;;;;;;;0.20;0.20;;;;;;;11.14;57.54;93191.06;5088586;28;20048;-45
2021/05/03 01:30:52;;;;;;;6.15;0.80;;;;;;;11.31;50.68;93187.69;5089514;28;20020;-45
2021/05/03 01:33:18;;;;;;;5.32;0.43;;;;;;;11.61;49.42;93178.50;5092832;28;20016;-47
2021/05/03 01:35:46;;;;;;;3.80;0.50;;;;;;;11.56;49.57;93169.13;5092970;28;20051;-46
2021/05/03 01:38:12;;;;;;;0.55;0.55;;;;;;;11.86;49.88;93184.81;5092555;28;20489;-45
2021/05/03 01:40:40;;;;;;;1.80;0.50;;;;;;;12.14;49.41;93182.41;5092850;28;20031;-47
2021/05/03 01:43:26;;;;;;;0.20;0.20;;;;;;;12.19;54.80;93192.50;5092798;28;20028;-46
2021/05/03 01:45:54;;;;;;;1.75;0.45;;;;;;;12.14;54.52;93192.75;5092749;28;20048;-46
2021/05/03 01:48:25;;;;;;;0.28;0.28;;;;;;;12.00;57.21;93191.53;5092557;28;20111;-46
2021/05/03 01:50:51;;;;;;;7.10;0.80;;;;;;;11.96;56.00;93189.19;5092801;28;20111;-45
2021/05/03 01:53:18;;;;;;;0.30;0.30;;;;;;;12.00;55.86;93183.25;5092665;28;20020;-45
2021/05/03 01:55:45;;;;;;;0.32;0.32;;;;;;;12.07;54.51;93177.66;5108067;28;20058;-49
2021/05/03 01:58:12;;;;;;;8.50;0.50;;;;;;;12.18;55.13;93188.28;5112564;28;20031;-46
2021/05/03 02:00:38;;;;;;;1.40;1.30;;;;;;;12.30;52.17;93207.91;5112395;28;20035;-47
2021/05/03 02:03:03;;;;;;;0.30;0.30;;;;;;;12.16;56.58;93206.75;5112390;28;20034;-46
2021/05/03 02:05:29;;;;;;;0.85;0.85;;;;;;;12.20;51.81;93190.47;5112256;28;20024;-45
2021/05/03 02:07:56;;;;;;;4.95;0.82;;;;;;;11.96;53.15;93210.56;5110980;28;20024;-47
2021/05/03 02:10:22;;;;;;;5.30;1.05;;;;;;;11.81;54.05;93230.78;5112540;28;20031;-45
2021/05/03 02:12:47;;;;;;;0.20;0.20;;;;;;;11.66;51.18;93244.66;5112133;28;20024;-46
2021/05/03 02:15:13;;;;;;;2.38;1.27;;;;;;;11.84;51.84;93251.78;5112188;28;20032;-45
2021/05/03 02:17:39;;;;;;;0.65;0.50;;;;;;;12.05;46.87;93257.00;5112405;28;20031;-45
2021/05/03 02:20:05;;;;;;;0.40;0.40;;;;;;;12.26;50.49;93268.47;5111975;28;20028;-46
2021/05/03 02:22:30;;;;;;;2.13;0.45;;;;;;;12.31;53.63;93278.59;5103860;28;20054;-44
2021/05/03 02:24:56;;;;;;;3.70;0.88;;;;;;;12.19;52.55;93267.22;5091464;28;20401;-48
2021/05/03 02:27:21;;;;;;;0.20;0.20;;;;;;;12.40;49.38;93271.72;5091442;28;20040;-45
2021/05/03 02:29:47;;;;;;;1.27;0.52;;;;;;;12.42;51.96;93269.84;5093129;28;20039;-45
2021/05/03 02:32:12;;;;;;;4.35;0.80;;;;;;;12.41;53.80;93267.66;5111801;28;20026;-44
2021/05/03 02:34:38;;;;;;;1.20;0.50;;;;;;;12.36;55.38;93269.34;5111648;28;20024;-45
2021/05/03 02:37:03;;;;;;;0.22;0.22;;;;;;;12.13;55.98;93269.50;5111636;28;20039;-44
2021/05/03 02:39:29;;;;;;;0.40;0.35;;;;;;;11.88;55.48;93277.03;5111966;28;20228;-47
2021/05/03 02:41:54;;;;;;;1.42;1.33;;;;;;;11.21;57.29;93242.06;5111496;28;20531;-44
2021/05/03 02:44:20;;;;;;;0.60;0.60;;;;;;;11.11;53.37;93269.53;5111843;28;20028;-44
2021/05/03 02:46:45;;;;;;;1.20;0.77;;;;;;;11.34;54.53;93263.97;5111452;27;20517;-45
2021/05/03 02:49:11;;;;;;;0.28;0.28;;;;;;;11.59;53.60;93264.03;5110627;28;20487;-45
2021/05/03 02:51:37;;;;;;;2.00;0.85;;;;;;;11.58;53.43;93262.56;5111607;28;20032;-45
2021/05/03 02:54:05;;;;;;;0.55;0.55;;;;;;;11.48;57.09;93267.22;5109552;28;20035;-43
2021/05/03 02:56:30;;;;;;;1.85;0.45;;;;;;;11.49;57.06;93274.97;5091150;28;20035;-46
2021/05/03 02:58:56;;;;;;;1.48;1.10;;;;;;;11.56;56.35;93268.66;5090726;28;20024;-43
2021/05/03 03:01:21;;;;;;;0.30;0.30;;;;;;;11.38;57.84;93280.91;5090773;28;20027;-46
2021/05/03 03:03:47;;;;;;;2.38;0.65;;;;;;;11.16;57.99;93281.69;5105387;28;20024;-45
2021/05/03 03:06:12;;;;;;;1.10;0.77;;;;;;;10.85;57.62;93286.53;5111133;28;20023;-46
2021/05/03 03:08:38;;;;;;;0.35;0.35;;;;;;;10.89;58.43;93291.69;5111022;28;20038;-43
2021/05/03 03:11:03;;;;;;;1.10;0.60;;;;;;;10.98;58.74;93293.91;5092678;28;20036;-47
2021/05/03 03:13:30;;;;;;;1.38;0.40;;;;;;;10.97;58.87;93297.94;5089355;28;20024;-45
2021/05/03 03:15:56;;;;;;;0.98;0.70;;;;;;;10.70;58.07;93302.41;5090512;28;20543;-44
2021/05/03 03:18:21;;;;;;;0.40;0.40;;;;;;;10.76;58.28;93311.22;5090651;28;20028;-45
2021/05/03 03:20:47;;;;;;;9.48;0.57;;;;;;;10.94;57.98;93304.56;5090761;28;20484;-45
2021/05/03 03:23:12;;;;;;;0.73;0.50;;;;;;;10.83;59.71;93293.94;5090670;28;20028;-44
2021/05/03 03:25:38;;;;;;;1.08;0.60;;;;;;;10.85;59.94;93316.19;5090401;28;20880;-44
2021/05/03 03:28:03;;;;;;;0.60;0.60;;;;;;;10.34;60.46;93313.59;5090061;28;20700;-46
2021/05/03 03:30:29;;;;;;;0.68;0.45;;;;;;;10.26;60.58;93312.88;5090649;28;20110;-49
2021/05/03 03:32:54;;;;;;;0.43;0.43;;;;;;;10.28;60.69;93308.28;5090765;28;20411;-47
2021/05/03 03:35:21;;;;;;;0.52;0.50;;;;;;;10.24;61.03;93299.63;5090595;28;20401;-45
2021/05/03 03:37:48;;;;;;;0.68;0.50;;;;;;;10.27;60.99;93303.28;5090186;28;20031;-45
2021/05/03 03:40:15;;;;;;;5.22;2.22;;;;;;;10.32;61.77;93308.63;5090732;28;20028;-46
2021/05/03 03:42:40;;;;;;;2.25;0.70;;;;;;;10.50;62.17;93324.09;5090572;28;20032;-46
2021/05/03 03:45:07;;;;;;;0.80;0.80;;;;;;;10.66;61.39;93346.94;5090547;28;20031;-45
2021/05/03 03:47:33;;;;;;;2.05;1.63;;;;;;;10.56;62.12;93343.25;5090456;28;20051;-46
2021/05/03 03:49:58;;;;;;;0.75;0.65;;;;;;;10.72;59.17;93341.97;5092308;28;20489;-46
2021/05/03 03:52:24;;;;;;;0.75;0.68;;;;;;;10.56;60.76;93346.00;5110101;28;20019;-45
2021/05/03 03:54:50;;;;;;;1.25;1.05;;;;;;;10.68;61.19;93349.88;5099382;28;20067;-45
2021/05/03 03:57:16;;;;;;;2.67;0.77;;;;;;;10.54;61.23;93349.34;5099307;28;20028;-47
2021/05/03 03:59:44;;;;;;;0.30;0.30;;;;;;;10.24;60.89;93352.06;5100505;28;20032;-45
2021/05/03 04:02:09;;;;;;;0.25;0.25;;;;;;;10.19;60.67;93358.47;5100227;28;20533;-46
2021/05/03 04:04:40;;;;;;;0.95;0.80;;;;;;;10.08;61.25;93349.75;5097761;28;20036;-45
2021/05/03 04:07:26;;;;;;;0.43;0.43;;;;;;;10.18;61.35;93348.69;5105955;28;20078;-45
2021/05/03 04:26:00;;;;;;;9.40;4.40;;;;;;;11.25;59.07;93369.56;5089416;28;20038;-47
2021/05/03 04:28:26;;;;;;;5.03;3.13;;;;;;;11.36;60.26;93378.22;5089239;28;20052;-47
2021/05/03 04:30:51;;;;;;;18.52;4.53;;;;;;;11.57;58.07;93375.19;5089659;28;20028;-47
2021/05/03 04:33:17;;;;;;;5.78;3.20;;;;;;;11.63;57.46;93366.72;5094534;28;20020;-44
2021/05/03 04:35:42;;;;;;;7.55;2.35;;;;;;;11.93;57.07;93386.72;5109726;28;20012;-46
2021/05/03 04:38:08;;;;;;;2.83;1.55;;;;;;;12.07;56.09;93392.75;5109893;28;20026;-45
2021/05/03 04:40:33;;;;;;;2.55;1.85;;;;;;;12.31;56.29;93389.34;5109983;28;20027;-47
2021/05/03 04:42:58;;;;;;;4.00;2.67;;;;;;;12.21;56.09;93362.81;5109466;28;20023;-47
2021/05/03 04:45:24;;;;;;;5.55;1.75;;;;;;;12.55;56.86;93388.66;5109636;28;20016;-45
2021/05/03 04:47:50;;;;;;;2.83;1.17;;;;;;;12.75;56.64;93386.88;5109613;28;20027;-45
2021/05/03 04:50:15;;;;;;;2.05;1.10;;;;;;;12.72;57.30;93399.06;5109540;28;20023;-48
2021/05/03 04:52:41;;;;;;;3.88;1.23;;;;;;;12.69;56.04;93406.47;5108545;28;20477;-45
2021/05/03 04:55:07;;;;;;;0.73;0.73;;;;;;;12.88;57.16;93422.59;5109647;28;20471;-48
2021/05/03 04:57:33;;;;;;;1.48;0.85;;;;;;;13.05;56.11;93425.47;5109844;28;20446;-47
2021/05/03 04:59:58;;;;;;;1.13;0.90;;;;;;;12.97;55.28;93429.56;5109664;28;20662;-45
2021/05/03 05:02:24;;;;;;;6.30;0.75;;;;;;;12.89;55.55;93424.81;5100997;28;20525;-46
2021/05/03 05:04:49;;;;;;;0.65;0.60;;;;;;;13.12;56.97;93432.25;5087846;28;20031;-46
2021/05/03 05:07:15;;;;;;;0.82;0.80;;;;;;;13.44;53.83;93421.09;5092394;28;20024;-45
2021/05/03 05:09:41;;;;;;;2.67;0.88;;;;;;;13.50;53.92;93430.66;5093462;28;20043;-48
2021/05/03 05:12:06;;;;;;;0.50;0.50;;;;;;;13.85;55.49;93428.66;5093122;28;20484;-46
2021/05/03 05:14:32;;;;;;;4.78;1.38;;;;;;;14.10;54.53;93412.63;5093427;28;20023;-45
2021/05/03 05:16:57;;;;;;;1.60;0.85;;;;;;;14.37;53.07;93424.56;5093206;28;20020;-48
2021/05/03 05:19:24;;;;;;;2.08;1.00;;;;;;;14.44;54.13;93431.34;5092872;28;20027;-44
2021/05/03 05:21:49;;;;;;;4.88;1.90;;;;;;;14.49;51.79;93427.56;5100427;28;20027;-45
2021/05/03 05:24:15;;;;;;;1.85;0.90;;;;;;;14.67;49.58;93417.13;5108060;28;20016;-48
2021/05/03 05:26:41;;;;;;;4.68;0.98;;;;;;;14.90;50.05;93448.88;5092630;28;20024;-46
2021/05/03 05:29:06;;;;;;;1.02;0.95;;;;;;;15.29;50.28;93432.38;5092404;28;20101;-45
2021/05/03 05:31:32;;;;;;;5.43;1.33;;;;;;;15.99;49.16;93442.50;5092832;28;20420;-47
2021/05/03 05:33:57;;;;;;;6.38;3.70;;;;;;;16.71;45.22;93438.72;5101301;28;20469;-46
2021/05/03 05:36:23;;;;;;;6.22;4.28;;;;;;;17.55;44.36;93429.97;5106077;28;20024;-44
2021/05/03 05:38:48;;;;;;;3.42;2.13;;;;;;;18.23;41.73;93431.03;5099216;28;20035;-46
2021/05/03 05:41:15;;;;;;;2.22;1.50;;;;;;;18.54;40.77;93424.03;5092741;28;20062;-48
2021/05/03 05:43:41;;;;;;;4.38;2.45;;;;;;;18.96;38.34;93426.00;5100852;28;20036;-47
2021/05/03 05:46:08;;;;;;;5.05;2.45;;;;;;;19.26;38.60;93433.47;5104980;28;20413;-49
2021/05/03 05:48:34;;;;;;;4.35;2.10;;;;;;;19.20;38.86;93435.16;5101775;28;20016;-47
2021/05/03 05:50:59;;;;;;;6.88;3.08;;;;;;;19.23;39.55;93445.16;5093732;28;20038;-49
2021/05/03 05:53:25;;;;;;;9.55;3.55;;;;;;;19.30;41.57;93449.78;5092406;28;20467;-48
2021/05/03 05:55:50;;;;;;;2.45;1.52;;;;;;;19.24;38.72;93446.59;5102878;28;20532;-50
2021/05/03 05:58:16;;;;;;;3.83;2.50;;;;;;;18.72;40.83;93455.22;5100884;28;20507;-54
2021/05/03 06:00:41;;;;;;;2.80;1.45;;;;;;;18.73;39.61;93462.28;5110283;28;20023;-56
2021/05/03 06:03:07;;;;;;;1.70;1.50;;;;;;;18.81;39.96;93463.53;5112282;28;20020;-56
2021/05/03 06:05:33;;;;;;;7.10;1.98;;;;;;;18.91;39.27;93469.03;5112171;28;20553;-56
2021/05/03 06:07:58;;;;;;;2.78;1.88;;;;;;;19.13;41.01;93464.09;5111887;28;20133;-58
2021/05/03 06:10:24;;;;;;;1.58;1.25;;;;;;;19.20;40.79;93463.88;5112045;28;20027;-57
2021/05/03 06:12:49;;;;;;;1.35;1.20;;;;;;;19.03;44.63;93477.47;5112077;28;20077;-55
2021/05/03 06:15:15;;;;;;;0.30;0.30;;;;;;;19.32;44.85;93447.84;5111930;28;20106;-55
2021/05/03 06:17:40;;;;;;;1.95;1.25;;;;;;;19.63;44.87;93447.66;5111285;28;20032;-58
2021/05/03 06:20:07;;;;;;;0.60;0.57;;;;;;;19.79;43.65;93442.28;5111693;28;20466;-56
2021/05/03 06:22:32;;;;;;;5.70;1.10;;;;;;;20.01;42.65;93446.41;5097893;28;20057;-56
2021/05/03 06:25:00;;;;;;;2.28;0.55;;;;;;;20.41;42.39;93448.78;5096781;28;20536;-58
2021/05/03 06:27:26;;;;;;;0.65;0.43;;;;;;;20.34;42.24;93444.91;5099382;28;20048;-57
2021/05/03 06:29:52;;;;;;;3.85;0.73;;;;;;;20.34;42.34;93438.56;5098843;27;20066;-55
2021/05/03 06:32:17;;;;;;;2.75;0.47;;;;;;;20.77;41.96;93439.63;5095486;28;20496;-54
2021/05/03 06:34:43;;;;;;;0.43;0.43;;;;;;;21.07;40.27;93437.84;5089136;28;20077;-55
2021/05/03 06:37:08;;;;;;;0.85;0.50;;;;;;;21.35;39.47;93444.25;5088756;28;20648;-56
2021/05/03 06:39:34;;;;;;;2.20;1.20;;;;;;;22.11;38.71;93448.31;5088994;28;20023;-57
2021/05/03 06:42:00;;;;;;;0.98;0.35;;;;;;;22.77;37.13;93438.97;5089013;28;20031;-55
2021/05/03 06:44:26;;;;;;;1.65;0.65;;;;;;;23.08;36.39;93450.34;5089071;28;20107;-56
2021/05/03 06:46:51;;;;;;;6.63;0.95;;;;;;;23.51;36.34;93450.28;5089416;28;20101;-57
2021/05/03 06:49:17;;;;;;;0.60;0.60;;;;;;;23.68;35.73;93456.03;5089453;28;20473;-55
2021/05/03 06:51:42;;;;;;;4.03;0.30;;;;;;;24.01;35.51;93453.28;5088662;28;20023;-57
2021/05/03 06:54:08;;;;;;;0.17;0.17;;;;;;;24.51;34.84;93457.59;5087503;28;20034;-57
2021/05/03 06:56:33;;;;;;;5.47;0.88;;;;;;;24.75;33.63;93455.81;5089689;28;20039;-57
2021/05/03 06:58:59;;;;;;;1.88;0.88;;;;;;;24.98;33.47;93449.00;5088381;28;20671;-57
2021/05/03 07:01:24;;;;;;;0.52;0.47;;;;;;;25.32;32.43;93461.66;5089051;28;20031;-57
2021/05/03 07:03:50;;;;;;;0.80;0.30;;;;;;;24.91;31.82;93455.03;5088936;28;20036;-57
2021/05/03 07:06:15;;;;;;;0.30;0.30;;;;;;;24.56;32.46;93447.22;5091302;28;20089;-51
2021/05/03 07:08:44;;;;;;;1.65;0.47;;;;;;;25.02;32.67;93446.31;5102898;28;20636;-50
2021/05/03 07:11:14;;;;;;;2.95;0.60;;;;;;;25.06;32.67;93454.25;5104293;28;20046;-50
2021/05/03 07:13:39;;;;;;;2.40;1.00;;;;;;;25.20;32.95;93461.19;5108959;28;20035;-49
2021/05/03 07:16:05;;;;;;;1.38;0.43;;;;;;;25.68;30.36;93458.81;5107684;28;20118;-52
2021/05/03 07:18:31;;;;;;;0.52;0.40;;;;;;;25.73;30.76;93449.84;5108501;28;20063;-51
2021/05/03 07:20:56;;;;;;;0.47;0.47;;;;;;;26.13;30.11;93442.16;5107270;28;20083;-51
2021/05/03 07:23:23;;;;;;;5.15;0.40;;;;;;;26.56;29.91;93439.44;5108173;28;20059;-57
2021/05/03 07:25:49;;;;;;;0.80;0.40;;;;;;;26.56;30.25;93430.22;5089688;28;20044;-51
2021/05/03 07:28:14;;;;;;;0.55;0.50;;;;;;;26.96;29.03;93440.81;5087074;28;20067;-53
2021/05/03 07:30:40;;;;;;;0.95;0.40;;;;;;;27.87;27.03;93445.84;5098107;28;20080;-55
2021/05/03 07:33:05;;;;;;;2.25;1.45;;;;;;;28.32;26.34;93460.69;5110749;28;20464;-51
2021/05/03 07:35:31;;;;;;;0.40;0.40;;;;;;;28.23;26.06;93459.00;5110750;28;20100;-52
2021/05/03 07:37:57;;;;;;;1.92;0.50;;;;;;;28.35;25.80;93464.31;5109921;28;20179;-51
2021/05/03 07:40:23;;;;;;;0.38;0.28;;;;;;;28.76;25.53;93475.38;5101784;28;20031;-50
2021/05/03 07:42:48;;;;;;;0.20;0.13;;;;;;;28.92;24.75;93475.09;5096221;28;20023;-50
2021/05/03 07:45:15;;;;;;;0.43;0.30;;;;;;;29.67;24.40;93464.19;5108352;28;20102;-52
2021/05/03 07:47:41;;;;;;;0.30;0.30;;;;;;;29.81;23.86;93455.28;5107825;28;20519;-52
2021/05/03 07:50:07;;;;;;;1.65;0.47;;;;;;;29.88;24.83;93459.72;5107553;28;20076;-49
2021/05/03 07:52:33;;;;;;;1.17;0.40;;;;;;;29.39;24.55;93472.03;5107748;28;20028;-50
2021/05/03 07:54:59;;;;;;;3.70;1.55;;;;;;;29.25;24.91;93448.97;5107550;28;20444;-51
2021/05/03 07:57:25;;;;;;;3.22;1.45;;;;;;;29.12;25.49;93472.78;5095149;28;20067;-50
2021/05/03 07:59:50;;;;;;;4.70;1.63;;;;;;;28.73;26.60;93479.59;5093407;28;20024;-52
2021/05/03 08:02:16;;;;;;;0.85;0.52;;;;;;;28.38;26.21;93460.09;5087891;28;20035;-51
2021/05/03 08:04:42;;;;;;;4.40;0.90;;;;;;;28.12;25.82;93462.19;5087621;28;20468;-54
2021/05/03 08:07:07;;;;;;;1.45;0.80;;;;;;;27.17;28.17;93467.00;5087449;28;20020;-54
2021/05/03 08:09:33;;;;;;;1.30;0.98;;;;;;;25.87;28.91;93480.75;5090344;28;20026;-50
2021/05/03 08:11:58;;;;;;;0.90;0.65;;;;;;;25.64;29.27;93465.06;5101754;28;20031;-50
2021/05/03 08:14:24;;;;;;;0.68;0.60;;;;;;;26.62;28.41;93473.63;5107901;28;20027;-55
2021/05/03 08:17:01;;;;;;;0.30;0.30;;;;;;;28.19;25.65;93490.13;5102203;28;20070;-50
2021/05/03 08:19:26;;;;;;;0.20;0.20;;;;;;;28.64;26.93;93469.38;5095507;28;20499;-53
2021/05/03 08:21:52;;;;;;;0.30;0.28;;;;;;;28.91;25.24;93479.34;5094200;28;20064;-54
2021/05/03 08:24:18;;;;;;;0.32;0.20;;;;;;;29.24;26.52;93458.88;5092985;28;20015;-54
2021/05/03 08:26:43;;;;;;;0.52;0.20;;;;;;;29.76;25.04;93465.84;5109145;28;20098;-50
2021/05/03 08:29:09;;;;;;;0.50;0.50;;;;;;;29.13;24.83;93471.38;5107181;28;20036;-53
2021/05/03 08:31:34;;;;;;;1.60;1.42;;;;;;;28.92;25.83;93461.59;5109742;28;20066;-57
2021/05/03 08:34:00;;;;;;;1.75;0.68;;;;;;;28.79;25.00;93479.75;5108665;28;20492;-49
2021/05/03 08:36:25;;;;;;;2.60;1.02;;;;;;;27.49;27.26;93496.44;5109638;28;20031;-52
2021/05/03 08:38:51;;;;;;;1.85;1.13;;;;;;;27.13;27.22;93487.44;5105891;28;20016;-53
2021/05/03 08:41:16;;;;;;;3.45;0.40;;;;;;;26.75;28.81;93491.78;5092465;28;20052;-54
2021/05/03 08:43:47;;;;;;;5.50;0.85;;;;;;;26.72;28.23;93499.50;5093652;28;20028;-53
2021/05/03 08:46:26;;;;;;;3.55;0.85;;;;;;;26.38;28.77;93478.44;5101172;28;20020;-52
2021/05/03 08:48:59;;;;;;;2.78;1.55;;;;;;;25.78;28.65;93493.88;5112065;28;20034;-50
2021/05/03 08:52:30;;;;;;;2.20;0.85;;;;;;;26.23;30.21;93496.28;5112222;28;20020;-53
2021/05/03 08:57:05;;;;;;;0.77;0.57;;;;;;;26.26;30.05;93497.81;5103370;28;20534;-53
2021/05/03 08:59:30;;;;;;;0.35;0.30;;;;;;;25.44;30.20;93467.09;5093142;28;20060;-52
2021/05/03 09:01:56;;;;;;;1.35;0.65;;;;;;;25.92;30.01;93482.38;5093112;28;20116;-54
2021/05/03 09:04:22;;;;;;;4.68;1.40;;;;;;;26.53;29.06;93477.56;5091947;28;20039;-52
2021/05/03 09:07:11;;;;;;;0.57;0.40;;;;;;;26.11;29.75;93487.38;5092774;28;20026;-49
2021/05/03 09:09:41;;;;;;;0.98;0.60;;;;;;;25.97;28.69;93472.66;5112512;28;20026;-49
2021/05/03 09:12:12;;;;;;;1.15;0.40;;;;;;;24.94;29.70;93479.16;5113624;28;20111;-52
2021/05/03 09:14:53;;;;;;;1.88;0.57;;;;;;;24.56;30.42;93478.97;5108699;28;20080;-52
2021/05/03 09:17:27;;;;;;;0.95;0.47;;;;;;;24.88;31.54;93490.22;5095903;28;20024;-53
2021/05/03 09:19:55;;;;;;;1.23;0.65;;;;;;;25.02;31.56;93494.34;5093052;28;20031;-50
2021/05/03 09:22:40;;;;;;;3.10;1.10;;;;;;;24.72;32.94;93499.44;5110777;28;20019;-53
2021/05/03 09:25:40;;;;;;;0.55;0.55;;;;;;;26.01;28.83;93489.81;5100876;28;20050;-52
2021/05/03 09:28:07;;;;;;;10.82;1.52;;;;;;;27.75;28.92;93483.06;5092698;28;20115;-48
2021/05/03 09:30:39;;;;;;;2.83;0.40;;;;;;;29.13;25.16;93474.22;5092995;28;20028;-55
2021/05/03 09:33:35;;;;;;;1.63;0.47;;;;;;;29.86;23.33;93463.25;5093159;28;20107;-52
2021/05/03 09:36:12;;;;;;;0.20;0.20;;;;;;;29.46;25.22;93453.72;5091033;28;20036;-50
2021/05/03 09:38:42;;;;;;;13.10;2.83;;;;;;;29.56;24.43;93456.81;5096634;28;20099;-50
2021/05/03 09:41:13;;;;;;;1.33;0.52;;;;;;;28.35;25.00;93467.84;5112925;28;20035;-50
2021/05/03 09:43:47;;;;;;;1.35;0.70;;;;;;;27.07;24.92;93475.91;5113052;28;20066;-49
2021/05/03 09:46:47;;;;;;;0.40;0.40;;;;;;;26.24;27.22;93470.19;5113093;28;20102;-51
2021/05/03 09:49:17;;;;;;;2.53;0.63;;;;;;;26.77;27.02;93472.75;5091357;28;20032;-47
2021/05/03 09:51:56;;;;;;;0.55;0.55;;;;;;;27.54;26.39;93486.66;5091374;28;20511;-49
2021/05/03 09:54:27;;;;;;;0.63;0.50;;;;;;;27.07;26.92;93492.91;5092492;28;20031;-50
2021/05/03 09:57:03;;;;;;;6.82;1.30;;;;;;;25.81;28.11;93492.59;5092320;28;20405;-50
2021/05/03 09:59:34;;;;;;;0.73;0.32;;;;;;;26.65;27.93;93489.31;5092400;28;20039;-53
2021/05/03 10:02:26;;;;;;;1.27;0.80;;;;;;;26.74;28.25;93490.34;5091864;28;20110;-47
2021/05/03 10:07:36;;;;;;;0.68;0.50;;;;;;;26.28;27.89;93467.50;5092058;28;20413;-50
2021/05/03 10:10:06;;;;;;;0.57;0.40;;;;;;;25.95;29.02;93483.88;5091535;28;20111;-55
2021/05/03 10:12:34;;;;;;;0.60;0.40;;;;;;;27.09;28.91;93489.41;5095829;28;20057;-48
2021/05/03 10:15:03;;;;;;;0.80;0.43;;;;;;;27.70;27.17;93501.34;5111692;28;20085;-49
2021/05/03 10:17:29;;;;;;;1.35;0.55;;;;;;;28.87;27.51;93501.97;5091909;28;20443;-51
2021/05/03 10:19:58;;;;;;;1.17;0.60;;;;;;;29.45;23.88;93491.41;5090545;28;20012;-52
2021/05/03 10:22:23;;;;;;;;;;;;;;;29.27;24.21;93490.94;5100583;28;20027;-49
2021/05/03 10:24:52;;;;;;;0.68;0.68;;;;;;;29.75;24.45;93490.03;5093983;28;19920;-51
2021/05/03 10:27:18;;;;;;;0.73;0.73;;;;;;;30.91;23.01;93485.38;5091376;28;20515;-49
2021/05/03 10:29:45;;;;;;;1.15;0.40;;;;;;;31.63;22.00;93482.38;5090649;28;20404;-53
2021/05/03 10:32:14;;;;;;;2.67;0.43;;;;;;;31.68;21.84;93481.75;5091446;28;20074;-52
2021/05/03 10:34:39;;;;;;;;;;;;;;;31.54;21.49;93492.94;5101678;28;20081;-48
2021/05/03 10:37:34;;;;;;;1.57;0.50;;;;;;;31.43;20.60;93482.75;5111895;28;19947;-46
2021/05/03 10:40:25;;;;;;;1.30;1.20;;;;;;;31.12;20.83;93477.94;5111380;28;20133;-48
2021/05/03 10:43:07;;;;;;;1.02;0.65;;;;;;;30.26;22.67;93482.59;5109661;28;20038;-52
2021/05/03 10:51:09;;;;;;;1.08;0.55;;;;;;;27.54;25.83;93493.06;5102189;28;20031;-48
2021/05/03 10:56:05;;;;;;;0.50;0.38;;;;;;;26.54;26.74;93484.69;5111297;28;20019;-47
2021/05/03 10:58:53;;;;;;;4.88;0.65;;;;;;;25.91;27.58;93498.63;5111540;28;20388;-48
2021/05/03 11:01:19;;;;;;;1.10;0.80;;;;;;;25.90;28.95;93493.63;5111241;28;20039;-48
2021/05/03 11:03:54;;;;;;;1.38;0.68;;;;;;;26.30;28.97;93497.97;5111292;27;20431;-49
2021/05/03 11:06:41;;;;;;;3.83;0.77;;;;;;;25.92;27.99;93500.09;5111321;28;20031;-50
2021/05/03 11:09:27;;;;;;;0.55;0.40;;;;;;;25.04;27.97;93494.44;5111513;28;20051;-48
2021/05/03 11:11:54;;;;;;;0.25;0.25;;;;;;;25.03;27.75;93497.91;5111118;28;20027;-52
2021/05/03 11:14:21;;;;;;;2.25;0.60;;;;;;;24.31;28.17;93495.50;5092252;28;20455;-48
2021/05/03 11:16:50;;;;;;;0.40;0.32;;;;;;;24.04;30.12;93513.31;5105986;28;20027;-49
2021/05/03 11:22:00;;;;;;;0.77;0.70;;;;;;;23.63;31.31;93504.41;5101572;28;20106;-49
2021/05/03 11:32:18;;;;;;;0.93;0.70;;;;;;;24.09;28.61;93498.81;5090710;28;20446;-51
2021/05/03 11:37:40;;;;;;;2.15;0.43;;;;;;;23.74;30.91;93511.94;5097286;28;20744;-53
2021/05/03 11:40:17;;;;;;;0.52;0.50;;;;;;;24.63;30.80;93499.72;5101623;28;20035;-49
2021/05/03 11:43:05;;;;;;;0.73;0.63;;;;;;;25.07;29.43;93503.72;5108740;28;20118;-49
2021/05/03 11:45:31;;;;;;;0.40;0.40;;;;;;;24.95;31.32;93498.28;5090090;28;20038;-48
2021/05/03 11:47:59;;;;;;;0.47;0.40;;;;;;;24.35;29.27;93490.78;5090156;28;20031;-51
2021/05/03 11:50:26;;;;;;;0.50;0.50;;;;;;;24.19;30.38;93494.97;5090286;28;20028;-48
2021/05/03 11:52:52;;;;;;;0.93;0.73;;;;;;;23.94;32.83;93501.59;5091170;28;20031;-49
2021/05/03 11:55:23;;;;;;;2.30;0.88;;;;;;;24.35;33.11;93487.22;5089979;28;20485;-53
2021/05/03 11:57:49;;;;;;;1.65;0.52;;;;;;;24.19;29.77;93475.94;5090211;28;20054;-49
2021/05/03 12:00:25;;;;;;;0.50;0.50;;;;;;;24.41;30.02;93473.34;5109221;28;20106;-53
2021/05/03 12:03:08;;;;;;;0.43;0.43;;;;;;;24.71;30.78;93463.38;5110085;28;20031;-53
2021/05/03 12:05:34;;;;;;;2.58;0.55;;;;;;;25.45;30.21;93474.94;5110122;28;20053;-49
2021/05/03 12:08:16;;;;;;;2.90;0.85;;;;;;;26.00;28.64;93460.78;5110029;28;20023;-50
2021/05/03 12:10:42;;;;;;;1.08;0.50;;;;;;;26.04;28.76;93465.84;5110225;28;20630;-51
2021/05/03 12:13:18;;;;;;;2.05;1.05;;;;;;;25.80;29.99;93460.00;5109774;28;20027;-47
2021/05/03 12:15:43;;;;;;;0.75;0.50;;;;;;;25.00;27.56;93465.28;5103025;28;20030;-51
2021/05/03 12:18:09;;;;;;;0.63;0.38;;;;;;;23.93;29.40;93467.00;5089738;28;20607;-50
2021/05/03 12:20:35;;;;;;;10.32;0.63;;;;;;;23.81;30.31;93457.28;5087787;28;20512;-50